LSGGLSZR

Guest
Details From LSGG - Geneva
To LSZR - St.gallen-altenrhein
Flight Number -
Tags Generated
Created
Modified
Stats Distance 161 nm / 297 km
Max Altitude 0 ft / 0 m
Waypoints 2
Social Downloads 1
Likes 0
Share VATSIM

Download

Looking for another format? Having issues loading an existing format? Contact us
Advertisement - Login to hide

Notes

Generated

Route

LSGG LSZR

ID Type Via Altitude Latitude Longitude Leg Dist Tot Dist Heading (true) Name
O LSGG APT - 0 ft / 0 m 46.23482˚ 6.09953˚ - 0 nm - -
O LSZR APT - 0 ft / 0 m 47.48658˚ 9.55628˚ 160 nm 160 nm 61° / 63° St.Gallen-Altenrhein

Altitude Profile

Advertisement - Login to hide

LSGG

Details ICAO LSGG (GVA)
Name Geneva
Region Switzerland
Timezone Europe/Zurich (UTC+2.0)
Stats Elevation 1,410 ft / 430 m (AMSL)
Location 46.237755° 6.106173°
Runways 2
Magnetic Variation 1.790° E

METAR

LSGG 210520Z VRB02KT 9999 FEW080 BKN100 12/12 Q1015 NOSIG

Decode

TAF

TAF LSGG 210225Z 2103/2209 05006KT 9999 FEW040 SCT100 TX22/2115Z TN12/2105Z TN12/2205Z PROB30 TEMPO 2112/2122 SHRA SCT030TCU BKN040

Decode

Departure Runways

ID Width Length Bearing (true) Bearing (mag) Surface Threshold Offset Overrun Length
05 180 ft / 55 m 12,796 ft / 3,900 m 45.43° 43.64° Concrete 1,079 ft / 329 m 66 ft / 20 m
05L 98 ft / 30 m 2,701 ft / 823 m 45.44° 43.65° Grass 610 ft / 186 m 0 ft / 0 m
23 180 ft / 55 m 12,796 ft / 3,900 m 225.45° 223.66° Concrete 0 ft / 0 m 66 ft / 20 m
23R 98 ft / 30 m 2,701 ft / 823 m 225.45° 223.66° Grass 997 ft / 304 m 0 ft / 0 m

LSZR

Details ICAO LSZR (ACH)
Name St.Gallen-Altenrhein
Region Switzerland
Timezone Europe/Zurich (UTC+2.0)
Stats Elevation 1,306 ft / 398 m (AMSL)
Location 47.485559° 9.560741°
Runways 2
Magnetic Variation 2.649° E

METAR

LSZR 210520Z VRB02KT CAVOK 12/10 Q1015 NOSIG RMK A

Decode

TAF

Not found

Destination Runways

ID Width Length Bearing (true) Bearing (mag) Surface Threshold Offset Overrun Length
10 98 ft / 30 m 4,909 ft / 1,496 m 98.79° 96.14° Asphalt 328 ft / 100 m 0 ft / 0 m
10L 75 ft / 23 m 1,970 ft / 601 m 98.80° 96.15° Grass 0 ft / 0 m 0 ft / 0 m
28 98 ft / 30 m 4,909 ft / 1,496 m 278.81° 276.16° Asphalt 246 ft / 75 m 0 ft / 0 m
28R 75 ft / 23 m 1,970 ft / 601 m 278.80° 276.15° Grass 0 ft / 0 m 0 ft / 0 m

Approach Navaids

Runway Type Ident Frequency Range Bearing (true) Bearing (mag) Slope Elevation
10 Localiser IAL 108.75 MHz 18 nm / 33 km 99.82° 97.17° - 1,306 ft / 398 m (AMSL)
10 Glidescope IAL 108.75 MHz 10 nm / 19 km 98.80° 96.15° 4.00° 1,333 ft / 406 m (AMSL)
10 DME IAL 108.75 MHz 18 nm / 33 km - - - 1,333 ft / 406 m (AMSL)

Popular Alternatives